Bei Facebook empfehlenBei Twitter postenGoogle plusPinterest

Das Wetter im Erzgebirge am 25.09.2016

Wetter und Klima am 25.09.2016 Holzhau im Erzgebirge (630m ü.NN)
Letzte gemessene Temperatur und Uhrzeit der Messung23:45:00 Uhr6.80 °C
Temperatur (Maximum / Höchstwert) und Uhrzeit der Messung15:30:00 Uhr20.10 °C
Temperatur (Minimum / Tiefstwert) und Uhrzeit der Messung06:45:005.50 °C
Errechneter Absolutwert der Temperaturschwankungen zwischen Tmin und Tmax des Tages14.60 K
Errechnete Tagesmitteltemperatur11.18646 °C
Gesamt - Niederschlag des Tages (in flüssiger Form)0.00 Liter / m²
Luftdruck (Maximum / Höchstwert) und Zeitpunkt der Messung00:00:00 Uhr1020.70 hPa
Luftdruck (Minimum / Tiefstwert) und Zeitpunkt der Messung20:15:00 Uhr1017.50 hPa
Errechneter Absolutwert der Luftdruckschwankungen des Tages3.20 hPa
Höchste gemessene Windgeschwindigkeit und Uhrzeit der Messung23:45:00 Uhr0.00 km/h
Errechnete Windhäufigkeit in Relation zu den Messwerten des Tages0.00000 %
Niedrigste Windkühle (Windchill) und Zeitpunkt der Messung06:45:00 Uhr5.50 °C
Taupunkt (Maximum / Höchstwert) und Uhrzeit der Messung11:00:00 Uhr15.10 °C
Taupunkt (Minimum / Tiefstwert) und Uhrzeit der Messung06:45:004.60 °C
Anzahl der automatisch eingelesenen Messwerte 96

Detaillierte Wetter- und Klima- Messwerte für den 25.09.2016 in Holzhau im Erzgebirge (630m ü.NN)
ZeitTemperaturLuftdruckRel. LuftfeuchteWindWindrichtungWindchillTaupunktNiederschlag l/m²
23:45:006.80 °C1018.10 hPa90.00 %5.30 °C 
23:30:006.50 °C1018.00 hPa90.00 %5.00 °C 
23:15:006.60 °C1018.00 hPa89.00 %4.90 °C 
23:00:007.30 °C1017.80 hPa89.00 %5.60 °C 
22:45:008.10 °C1017.90 hPa89.00 %6.40 °C 
22:30:007.90 °C1017.90 hPa89.00 %6.20 °C 
22:15:007.90 °C1017.80 hPa88.00 %6.00 °C 
22:00:008.10 °C1017.80 hPa88.00 %6.20 °C 
21:45:008.10 °C1017.80 hPa88.00 %6.20 °C 
21:30:008.10 °C1017.80 hPa87.00 %6.10 °C 
21:15:008.20 °C1017.70 hPa87.00 %6.20 °C 
21:00:008.40 °C1017.60 hPa86.00 %6.20 °C 
20:45:008.70 °C1017.60 hPa86.00 %6.50 °C 
20:30:008.90 °C1017.70 hPa85.00 %6.50 °C 
20:15:009.00 °C1017.50 hPa85.00 %6.60 °C 
20:00:009.10 °C1017.50 hPa84.00 %6.50 °C 
19:45:009.40 °C1017.60 hPa83.00 %6.70 °C 
19:30:009.80 °C1017.60 hPa82.00 %6.90 °C 
19:15:0010.10 °C1017.60 hPa80.00 %6.80 °C 
19:00:0010.40 °C1017.50 hPa78.00 %6.70 °C 
18:45:0011.10 °C1017.70 hPa76.00 %7.00 °C 
18:30:0011.80 °C1017.70 hPa73.00 %7.10 °C 
18:15:0012.70 °C1017.50 hPa71.00 %7.60 °C 
18:00:0014.00 °C1017.80 hPa68.00 %8.20 °C 
17:45:0015.00 °C1017.70 hPa66.00 %8.70 °C 
17:30:0016.40 °C1017.70 hPa63.00 %9.30 °C 
17:15:0017.50 °C1017.70 hPa61.00 %9.90 °C 
17:00:0018.10 °C1017.80 hPa59.00 %10.00 °C 
16:45:0018.90 °C1017.80 hPa59.00 %10.70 °C 
16:30:0019.30 °C1018.10 hPa58.00 %10.80 °C 
16:15:0019.50 °C1018.10 hPa58.00 %11.00 °C 
16:00:0019.60 °C1018.00 hPa57.00 %10.90 °C 
15:45:0019.80 °C1018.10 hPa56.00 %10.80 °C 
15:30:0020.10 °C1018.00 hPa58.00 %11.60 °C 
15:15:0019.60 °C1018.00 hPa57.00 %10.90 °C 
15:00:0019.60 °C1018.20 hPa58.00 %11.10 °C 
14:45:0019.50 °C1018.20 hPa59.00 %11.30 °C 
14:30:0019.40 °C1018.00 hPa59.00 %11.20 °C 
14:15:0019.30 °C1018.10 hPa61.00 %11.60 °C 
14:00:0019.10 °C1018.30 hPa61.00 %11.40 °C 
13:45:0018.90 °C1018.30 hPa61.00 %11.20 °C 
13:30:0018.80 °C1018.50 hPa63.00 %11.60 °C 
13:15:0018.80 °C1018.70 hPa65.00 %12.10 °C 
13:00:0018.40 °C1018.80 hPa66.00 %11.90 °C 
12:45:0018.40 °C1018.90 hPa66.00 %11.90 °C 
12:30:0018.80 °C1018.80 hPa68.00 %12.80 °C 
12:15:0018.40 °C1018.80 hPa71.00 %13.10 °C 
12:00:0017.80 °C1018.90 hPa72.00 %12.70 °C 
11:45:0017.50 °C1019.20 hPa75.00 %13.00 °C 
11:30:0017.40 °C1019.20 hPa80.00 %13.90 °C 
11:15:0017.20 °C1019.20 hPa85.00 %14.70 °C 
11:00:0016.70 °C1019.10 hPa90.00 %15.10 °C 
10:45:0016.10 °C1019.20 hPa93.00 %15.00 °C 
10:30:0015.60 °C1019.10 hPa95.00 %14.80 °C 
10:15:0014.90 °C1019.10 hPa96.00 %14.30 °C 
10:00:0013.90 °C1019.10 hPa96.00 %13.30 °C 
09:45:0012.50 °C1019.20 hPa96.00 %11.90 °C 
09:30:0010.90 °C1019.30 hPa95.00 %10.10 °C 
09:15:009.50 °C1019.30 hPa95.00 %8.70 °C 
09:00:008.40 °C1019.30 hPa95.00 %7.60 °C 
08:45:007.60 °C1019.30 hPa95.00 %6.90 °C 
08:30:006.80 °C1019.20 hPa95.00 %6.10 °C 
08:15:006.30 °C1019.30 hPa95.00 %5.60 °C 
08:00:006.00 °C1019.20 hPa94.00 %5.10 °C 
07:45:005.80 °C1019.00 hPa94.00 %4.90 °C 
07:30:005.90 °C1019.30 hPa94.00 %5.00 °C 
07:15:005.90 °C1019.30 hPa94.00 %5.00 °C 
07:00:006.10 °C1019.20 hPa94.00 %5.20 °C 
06:45:005.50 °C1019.20 hPa94.00 %4.60 °C 
06:30:005.60 °C1019.30 hPa94.00 %4.70 °C 
06:15:005.80 °C1019.40 hPa94.00 %4.90 °C 
06:00:006.00 °C1019.50 hPa94.00 %5.10 °C 
05:45:006.40 °C1019.60 hPa94.00 %5.50 °C 
05:30:006.10 °C1019.60 hPa94.00 %5.20 °C 
05:15:006.10 °C1019.60 hPa93.00 %5.10 °C 
05:00:006.50 °C1019.70 hPa94.00 %5.60 °C 
04:45:006.50 °C1019.80 hPa94.00 %5.60 °C 
04:30:006.70 °C1020.00 hPa94.00 %5.80 °C 
04:15:006.90 °C1020.00 hPa94.00 %6.00 °C 
04:00:006.90 °C1020.20 hPa93.00 %5.80 °C 
03:45:007.30 °C1020.30 hPa93.00 %6.20 °C 
03:30:007.30 °C1020.30 hPa93.00 %6.20 °C 
03:15:007.00 °C1020.40 hPa93.00 %5.90 °C 
03:00:006.60 °C1020.40 hPa93.00 %5.60 °C 
02:45:006.40 °C1020.40 hPa93.00 %5.40 °C 
02:30:006.40 °C1020.40 hPa92.00 %5.20 °C 
02:15:006.30 °C1020.40 hPa92.00 %5.10 °C 
02:00:006.50 °C1020.40 hPa92.00 %5.30 °C 
01:45:006.90 °C1020.40 hPa92.00 %5.70 °C 
01:30:006.90 °C1020.40 hPa92.00 %5.70 °C 
01:15:006.90 °C1020.40 hPa92.00 %5.70 °C 
01:00:007.20 °C1020.50 hPa92.00 %6.00 °C 
00:45:007.30 °C1020.50 hPa92.00 %6.10 °C 
00:30:007.50 °C1020.50 hPa91.00 %6.10 °C 
00:15:007.60 °C1020.60 hPa91.00 %6.20 °C 
00:00:007.80 °C1020.70 hPa91.00 %6.40 °C 

Permanenter Link zu dieser Seite: Wetter im Erzgebirge am 25.09.2016
Performance-Info: Die Erstellung der Seite / Statistik(en) / Tabelle(n) erforderte 5 Datenbankserver-Abfrage(n) und dauerte 101 Millisekunden. (Dieser Messwert ist von der Gesamt-Auslastung des Servers abhängig.)
Erzgebirge - Wetter | Erzgebirge - Wetter (Mobilgeräte) | Komplette Klimadatenbank